Time;durP1;ratioP1;P1;durP2;ratioP2;P2;SDS_P1;SDS_P2;PMS_P1;PMS_P2;Temp;Humidity;BMP_temperature;BMP_pressure;BME280_temperature;BME280_humidity;BME280_pressure;Samples;Min_cycle;Max_cycle;Signal;HPM_P1;HPM_P2
2023/08/02 00:01:45;;;;;;;2.58;1.90;;;;;;;15.92;69.68;94802.41;4974721;28;20184;-79
2023/08/02 00:04:11;;;;;;;3.78;2.00;;;;;;;15.96;69.38;94800.19;4974446;28;20187;-79
2023/08/02 00:06:36;;;;;;;5.38;2.20;;;;;;;15.97;69.43;94794.75;4970331;28;20230;-80
2023/08/02 00:09:02;;;;;;;3.92;2.00;;;;;;;15.97;69.42;94792.13;4956679;28;20239;-80
2023/08/02 00:11:27;;;;;;;3.20;1.90;;;;;;;15.92;69.62;94791.94;4963603;28;20190;-80
2023/08/02 00:13:53;;;;;;;3.10;1.80;;;;;;;15.95;69.73;94788.91;4968168;28;20251;-80
2023/08/02 00:16:18;;;;;;;4.40;1.98;;;;;;;15.94;69.60;94776.00;4959247;28;20621;-80
2023/08/02 00:18:43;;;;;;;4.13;1.85;;;;;;;15.94;69.44;94774.19;4976192;28;20283;-81
2023/08/02 00:21:09;;;;;;;3.75;1.77;;;;;;;15.91;69.58;94771.19;4975558;28;20275;-81
2023/08/02 00:23:34;;;;;;;5.70;1.63;;;;;;;15.98;69.41;94771.97;4973181;28;20559;-80
2023/08/02 00:25:59;;;;;;;1.95;1.60;;;;;;;16.00;68.80;94768.19;4969936;28;20254;-79
2023/08/02 00:28:25;;;;;;;4.15;1.67;;;;;;;15.80;69.96;94754.22;4957982;28;20215;-80
2023/08/02 00:30:50;;;;;;;5.53;2.10;;;;;;;15.89;69.48;94753.03;4957342;28;20203;-80
2023/08/02 00:33:15;;;;;;;4.32;2.00;;;;;;;15.88;69.29;94740.94;4967170;28;20212;-80
2023/08/02 00:35:45;;;;;;;4.20;2.13;;;;;;;15.86;69.28;94746.41;4946815;28;20212;-80
2023/08/02 00:38:11;;;;;;;5.72;1.60;;;;;;;15.90;69.61;94738.13;4961121;28;20195;-79
2023/08/02 00:40:36;;;;;;;2.53;1.73;;;;;;;15.91;69.09;94730.09;4960579;28;20713;-80
2023/08/02 00:43:01;;;;;;;4.45;2.13;;;;;;;15.78;69.42;94735.31;4964428;28;20192;-80
2023/08/02 00:45:27;;;;;;;4.55;1.70;;;;;;;15.91;69.13;94724.06;4949854;28;20885;-80
2023/08/02 00:47:52;;;;;;;3.00;1.63;;;;;;;15.85;69.14;94733.50;4953058;28;20223;-80
2023/08/02 00:50:20;;;;;;;4.50;1.95;;;;;;;15.89;68.63;94721.63;4961907;28;20199;-80
2023/08/02 00:52:46;;;;;;;4.35;2.00;;;;;;;15.89;69.06;94711.16;4974358;28;20183;-79
2023/08/02 00:55:11;;;;;;;5.95;1.92;;;;;;;15.83;69.16;94717.19;4975709;28;20567;-80
2023/08/02 00:57:36;;;;;;;3.10;1.63;;;;;;;15.84;69.13;94722.22;4962198;28;20180;-80
2023/08/02 01:00:02;;;;;;;6.95;2.05;;;;;;;15.84;69.54;94724.03;4960245;28;20215;-80
2023/08/02 01:02:27;;;;;;;3.47;1.98;;;;;;;15.68;70.06;94720.00;4989369;28;20860;-79
2023/08/02 01:04:53;;;;;;;3.35;1.70;;;;;;;15.55;71.22;94723.38;4987088;28;20569;-80
2023/08/02 01:07:31;;;;;;;3.35;1.90;;;;;;;15.48;71.31;94721.75;4951969;28;20209;-79
2023/08/02 01:10:09;;;;;;;3.65;2.00;;;;;;;15.26;72.55;94724.47;4949126;28;20196;-80
2023/08/02 01:12:35;;;;;;;3.53;1.95;;;;;;;15.30;72.34;94709.22;4958433;28;20196;-79
2023/08/02 01:15:03;;;;;;;2.17;1.58;;;;;;;15.47;71.86;94707.84;4960307;28;20219;-79
2023/08/02 01:17:28;;;;;;;4.00;1.90;;;;;;;15.57;71.24;94703.03;4961193;28;20193;-80
2023/08/02 01:19:54;;;;;;;4.18;1.80;;;;;;;15.59;71.05;94700.22;4957036;28;20198;-80
2023/08/02 01:22:20;;;;;;;4.03;1.73;;;;;;;15.67;70.56;94704.50;4960749;28;20214;-79
2023/08/02 01:24:45;;;;;;;4.68;1.92;;;;;;;15.59;70.82;94698.41;4958872;28;20215;-79
2023/08/02 01:27:14;;;;;;;6.38;1.75;;;;;;;15.68;70.76;94698.25;4949677;28;20262;-80
2023/08/02 01:29:46;;;;;;;4.00;2.13;;;;;;;15.61;71.50;94702.66;4946878;28;20196;-79
2023/08/02 01:32:11;;;;;;;5.00;1.90;;;;;;;15.55;71.85;94699.00;4944593;28;20199;-80
2023/08/02 01:34:38;;;;;;;3.00;1.90;;;;;;;15.68;71.35;94699.06;4975665;28;20187;-78
2023/08/02 01:37:03;;;;;;;3.15;2.15;;;;;;;15.68;71.97;94703.47;4973501;28;20188;-79
2023/08/02 01:39:28;;;;;;;4.40;1.95;;;;;;;15.47;72.42;94709.66;4956033;28;20195;-79
2023/08/02 01:41:54;;;;;;;2.08;1.85;;;;;;;15.42;73.18;94712.84;4970154;28;20271;-80
2023/08/02 01:44:19;;;;;;;4.40;1.80;;;;;;;15.50;72.96;94712.69;4965527;28;20298;-78
2023/08/02 01:46:44;;;;;;;2.83;2.00;;;;;;;15.42;73.43;94699.78;4958400;28;20255;-79
2023/08/02 01:49:10;;;;;;;3.38;1.98;;;;;;;15.45;73.54;94693.34;4979078;28;20255;-78
2023/08/02 01:51:35;;;;;;;3.88;1.88;;;;;;;15.36;74.53;94684.06;4958398;28;20185;-77
2023/08/02 01:54:00;;;;;;;3.67;2.00;;;;;;;15.35;74.49;94693.72;4958095;28;20196;-78
2023/08/02 01:56:26;;;;;;;2.20;1.95;;;;;;;15.38;74.47;94688.09;4961897;28;20208;-79
2023/08/02 01:58:51;;;;;;;6.57;1.92;;;;;;;15.48;74.04;94685.91;4964669;28;20708;-78
2023/08/02 02:01:16;;;;;;;4.13;2.05;;;;;;;15.49;74.25;94682.28;4960149;28;20180;-78
2023/08/02 02:03:41;;;;;;;4.68;2.10;;;;;;;15.42;74.57;94664.97;4977226;28;20183;-77
2023/08/02 02:06:07;;;;;;;4.30;1.88;;;;;;;15.42;74.45;94651.88;4981161;28;20222;-78
2023/08/02 02:08:32;;;;;;;3.65;1.80;;;;;;;15.35;75.04;94657.09;4984521;28;20215;-77
2023/08/02 02:10:57;;;;;;;3.28;2.00;;;;;;;15.49;74.28;94653.50;4968928;28;20195;-79
2023/08/02 02:13:24;;;;;;;5.40;2.08;;;;;;;15.59;73.91;94669.63;4958650;28;20199;-79
2023/08/02 02:15:49;;;;;;;2.38;1.95;;;;;;;15.54;74.32;94665.97;4971078;28;20203;-78
2023/08/02 02:18:15;;;;;;;4.20;1.80;;;;;;;15.49;74.59;94666.59;4959753;28;20187;-79
2023/08/02 02:20:40;;;;;;;4.40;2.03;;;;;;;15.49;75.05;94661.34;4951530;28;20195;-79
2023/08/02 02:23:06;;;;;;;3.88;1.90;;;;;;;15.49;74.81;94663.16;4948441;28;20196;-78
2023/08/02 02:25:31;;;;;;;3.25;2.28;;;;;;;15.29;76.70;94636.97;4960750;28;20205;-79
2023/08/02 02:27:56;;;;;;;2.97;2.00;;;;;;;15.34;76.56;94626.72;4958792;28;20204;-78
2023/08/02 02:30:22;;;;;;;3.03;1.98;;;;;;;15.36;77.07;94623.88;4942833;28;20196;-78
2023/08/02 02:32:47;;;;;;;4.22;2.35;;;;;;;15.42;77.61;94623.91;4961530;28;20556;-79
2023/08/02 02:35:13;;;;;;;3.80;2.08;;;;;;;15.41;77.75;94624.91;4963342;28;20502;-79
2023/08/02 02:37:39;;;;;;;6.68;2.30;;;;;;;15.34;78.27;94631.13;4950070;28;20199;-79
2023/08/02 02:40:06;;;;;;;2.85;2.20;;;;;;;15.41;78.15;94629.34;4968863;28;20180;-79
2023/08/02 02:42:31;;;;;;;3.03;2.10;;;;;;;15.48;78.10;94630.97;4955521;28;20195;-79
2023/08/02 02:44:56;;;;;;;3.65;2.30;;;;;;;15.49;77.86;94627.34;4990756;28;20266;-78
2023/08/02 02:47:21;;;;;;;4.05;1.98;;;;;;;15.50;77.94;94618.47;4993714;28;20239;-77
2023/08/02 02:49:47;;;;;;;2.37;2.17;;;;;;;15.49;78.19;94610.84;4974572;28;20206;-79
2023/08/02 02:52:12;;;;;;;5.90;2.58;;;;;;;15.50;77.97;94620.28;4954799;28;20219;-78
2023/08/02 02:54:37;;;;;;;3.47;1.77;;;;;;;15.53;77.78;94610.22;4967886;28;20192;-78
2023/08/02 02:57:03;;;;;;;4.15;2.05;;;;;;;15.47;78.50;94603.19;4957855;28;20310;-78
2023/08/02 02:59:28;;;;;;;5.38;2.72;;;;;;;15.51;78.09;94600.97;4964628;28;20654;-78
2023/08/02 03:01:53;;;;;;;3.70;2.42;;;;;;;15.46;78.88;94593.75;4943066;28;20196;-78
2023/08/02 03:04:19;;;;;;;4.15;2.25;;;;;;;15.43;78.51;94585.47;4958730;28;20223;-78
2023/08/02 03:06:44;;;;;;;2.83;2.00;;;;;;;15.51;78.54;94585.28;4957113;28;20267;-79
2023/08/02 03:09:09;;;;;;;3.17;1.80;;;;;;;15.47;78.57;94582.25;4964755;28;20632;-78
2023/08/02 03:11:35;;;;;;;3.70;1.88;;;;;;;15.52;78.31;94584.25;4969895;28;20199;-78
2023/08/02 03:14:01;;;;;;;4.85;2.17;;;;;;;15.47;78.41;94586.69;4967214;28;20195;-79
2023/08/02 03:16:26;;;;;;;2.67;2.20;;;;;;;15.48;78.19;94581.25;4964843;28;20204;-78
2023/08/02 03:18:51;;;;;;;3.83;2.33;;;;;;;15.40;78.28;94581.44;4962626;28;20319;-78
2023/08/02 03:21:17;;;;;;;5.38;2.42;;;;;;;15.51;77.95;94580.03;4959640;28;20180;-78
2023/08/02 03:23:42;;;;;;;4.78;2.00;;;;;;;15.38;78.38;94582.66;4957261;28;20195;-79
2023/08/02 03:26:07;;;;;;;2.67;2.42;;;;;;;15.21;79.12;94580.44;4956389;28;20245;-79
2023/08/02 03:28:33;;;;;;;4.57;2.40;;;;;;;15.36;78.20;94580.22;4973286;28;20219;-79
2023/08/02 03:30:58;;;;;;;5.80;2.40;;;;;;;15.30;78.64;94570.59;4963987;28;20542;-79
2023/08/02 03:33:23;;;;;;;4.82;2.80;;;;;;;15.39;77.99;94565.97;4966792;28;20192;-79
2023/08/02 03:35:48;;;;;;;2.40;2.10;;;;;;;15.32;77.89;94563.34;4967430;28;20216;-77
2023/08/02 03:38:14;;;;;;;3.88;2.13;;;;;;;15.27;78.47;94558.69;4970644;28;20525;-79
2023/08/02 03:40:39;;;;;;;4.85;2.17;;;;;;;15.37;77.95;94550.47;4973909;28;20195;-79
2023/08/02 03:43:04;;;;;;;4.78;2.38;;;;;;;15.38;77.96;94546.84;4974799;28;20184;-79
2023/08/02 03:45:30;;;;;;;3.20;2.45;;;;;;;15.45;77.62;94547.63;4955746;28;20216;-79
2023/08/02 03:47:55;;;;;;;5.88;2.28;;;;;;;15.40;78.19;94538.78;4970194;28;20271;-80
2023/08/02 03:50:20;;;;;;;5.47;2.40;;;;;;;15.37;78.20;94532.16;4967017;28;20661;-79
2023/08/02 03:52:46;;;;;;;4.68;2.20;;;;;;;15.47;78.18;94527.31;4982022;28;20692;-80
2023/08/02 03:55:11;;;;;;;2.63;2.40;;;;;;;15.37;77.69;94521.69;4961336;28;20728;-79
2023/08/02 03:57:36;;;;;;;3.75;2.42;;;;;;;15.31;78.83;94519.88;4956316;28;20208;-79
2023/08/02 04:00:02;;;;;;;4.65;2.75;;;;;;;15.35;79.11;94521.06;4956780;28;20577;-79
2023/08/02 04:02:28;;;;;;;3.70;2.40;;;;;;;15.35;79.24;94505.38;4957944;28;20184;-78
2023/08/02 04:04:53;;;;;;;5.70;2.40;;;;;;;15.37;79.12;94513.84;4956084;28;20215;-78
2023/08/02 04:07:18;;;;;;;3.15;2.53;;;;;;;15.27;79.44;94506.38;4956412;28;20306;-79
2023/08/02 04:09:43;;;;;;;2.90;2.28;;;;;;;15.30;79.58;94508.63;4963644;28;20202;-78
2023/08/02 04:12:09;;;;;;;5.57;2.55;;;;;;;15.27;80.02;94506.38;4980754;28;20187;-79
2023/08/02 04:14:34;;;;;;;3.15;2.50;;;;;;;15.35;79.94;94499.34;4955580;28;20555;-79
2023/08/02 04:16:59;;;;;;;4.20;2.28;;;;;;;15.32;79.92;94492.72;4975761;28;20662;-79
2023/08/02 04:19:25;;;;;;;2.08;1.88;;;;;;;15.30;80.48;94489.50;4953203;28;20235;-79
2023/08/02 04:21:51;;;;;;;3.20;2.30;;;;;;;15.23;80.94;94486.06;4942703;28;20184;-79
2023/08/02 04:24:16;;;;;;;3.90;2.45;;;;;;;15.16;81.69;94480.84;4956901;28;20197;-79
2023/08/02 04:26:41;;;;;;;5.45;2.72;;;;;;;15.16;82.01;94469.56;4962779;28;20290;-79
2023/08/02 04:29:06;;;;;;;3.58;2.53;;;;;;;15.17;82.18;94465.94;4966659;28;20302;-79
2023/08/02 04:31:32;;;;;;;3.88;2.40;;;;;;;15.26;82.10;94480.44;4952759;28;20235;-80
2023/08/02 04:33:57;;;;;;;3.95;2.45;;;;;;;15.22;82.80;94469.59;4971285;28;20608;-78
2023/08/02 04:36:22;;;;;;;3.33;2.45;;;;;;;15.21;82.80;94460.13;4990274;28;20223;-78
2023/08/02 04:38:52;;;;;;;2.53;2.33;;;;;;;15.17;83.61;94455.50;4973798;28;20187;-79
2023/08/02 04:41:17;;;;;;;5.65;2.97;;;;;;;15.17;84.21;94445.03;4955440;28;20683;-79
2023/08/02 04:43:42;;;;;;;5.43;2.50;;;;;;;15.16;84.77;94446.84;4968886;28;20247;-78
2023/08/02 04:46:08;;;;;;;3.03;2.60;;;;;;;15.20;85.20;94437.59;4965538;28;20215;-79
2023/08/02 04:48:33;;;;;;;4.03;2.38;;;;;;;15.23;85.15;94428.53;4963552;28;20752;-80
2023/08/02 04:50:58;;;;;;;3.55;2.30;;;;;;;15.18;85.74;94431.75;4957143;28;20243;-80
2023/08/02 04:53:23;;;;;;;5.05;2.80;;;;;;;15.27;85.61;94435.75;4956199;28;20196;-78
2023/08/02 04:55:49;;;;;;;3.88;2.42;;;;;;;15.20;86.18;94434.19;4974135;28;20211;-80
2023/08/02 04:58:14;;;;;;;4.40;2.78;;;;;;;15.21;86.01;94439.22;4972694;28;20555;-81
2023/08/02 05:00:39;;;;;;;3.30;2.47;;;;;;;15.24;86.66;94440.59;4954258;28;20680;-81
2023/08/02 05:03:05;;;;;;;3.63;2.50;;;;;;;14.97;88.26;94437.19;4967947;28;20234;-81
2023/08/02 05:05:31;;;;;;;3.58;2.55;;;;;;;15.00;88.44;94437.59;4947116;28;20205;-81
2023/08/02 05:07:57;;;;;;;4.65;2.60;;;;;;;15.09;88.55;94424.31;4946164;28;20204;-81
2023/08/02 05:10:22;;;;;;;2.83;2.60;;;;;;;14.91;90.18;94424.94;4956143;28;20203;-80
2023/08/02 05:12:47;;;;;;;5.90;2.88;;;;;;;14.97;90.03;94422.31;4956928;28;20191;-81
2023/08/02 05:15:12;;;;;;;2.45;2.22;;;;;;;15.00;90.32;94413.25;4955591;28;20215;-81
2023/08/02 05:17:38;;;;;;;5.30;2.95;;;;;;;14.99;90.54;94407.22;4977159;28;20189;-80
2023/08/02 05:20:04;;;;;;;3.73;3.10;;;;;;;15.00;91.13;94408.84;4964805;28;20196;-80
2023/08/02 05:22:31;;;;;;;5.77;2.77;;;;;;;14.97;91.49;94406.63;4949524;28;20560;-81
2023/08/02 05:24:56;;;;;;;5.37;3.00;;;;;;;14.99;91.99;94396.78;4960657;28;20324;-80
2023/08/02 05:27:21;;;;;;;5.57;3.22;;;;;;;15.10;91.59;94399.78;4960416;28;20565;-81
2023/08/02 05:29:47;;;;;;;5.03;2.80;;;;;;;15.06;92.50;94406.44;4963293;28;20180;-81
2023/08/02 05:32:12;;;;;;;4.03;2.70;;;;;;;14.91;93.15;94402.22;4956923;28;20188;-80
2023/08/02 05:34:37;;;;;;;6.10;3.20;;;;;;;15.08;92.74;94405.22;4960133;28;20578;-82
2023/08/02 05:37:03;;;;;;;3.55;2.70;;;;;;;15.13;92.56;94394.16;4962167;28;20292;-82
2023/08/02 05:39:28;;;;;;;3.20;2.90;;;;;;;15.16;92.63;94391.13;4982923;28;20199;-81
2023/08/02 05:41:54;;;;;;;4.27;3.23;;;;;;;15.12;93.23;94380.28;4952055;28;20595;-81
2023/08/02 05:44:19;;;;;;;3.83;2.90;;;;;;;15.19;93.30;94380.25;4954419;28;20207;-81
2023/08/02 05:46:44;;;;;;;4.93;2.63;;;;;;;15.20;93.27;94369.63;4956340;28;20212;-80
2023/08/02 05:49:10;;;;;;;5.00;2.83;;;;;;;15.23;93.54;94381.47;4975529;28;20212;-81
2023/08/02 05:51:35;;;;;;;3.22;2.92;;;;;;;15.25;93.52;94364.56;4976710;28;20329;-81
2023/08/02 05:54:00;;;;;;;4.55;3.10;;;;;;;15.28;93.51;94376.41;4974207;28;20186;-80
2023/08/02 05:56:26;;;;;;;3.93;2.60;;;;;;;14.99;95.25;94365.41;4971108;28;20208;-81
2023/08/02 05:58:51;;;;;;;5.33;3.33;;;;;;;15.13;95.22;94378.47;4986758;28;20227;-79
2023/08/02 06:01:16;;;;;;;5.43;3.55;;;;;;;15.19;94.78;94370.59;4949177;28;20220;-80
2023/08/02 06:03:42;;;;;;;4.35;3.03;;;;;;;15.15;95.57;94363.38;4963797;28;20309;-82
2023/08/02 06:06:07;;;;;;;4.15;2.72;;;;;;;15.17;95.58;94366.59;4959434;28;20208;-81
2023/08/02 06:08:32;;;;;;;4.13;3.08;;;;;;;15.32;94.52;94355.91;4957819;28;20216;-80
2023/08/02 06:11:00;;;;;;;5.15;3.10;;;;;;;15.38;94.08;94355.88;4959590;28;20188;-81
2023/08/02 06:13:26;;;;;;;3.85;3.10;;;;;;;15.51;93.72;94357.66;4954692;28;20183;-81
2023/08/02 06:15:51;;;;;;;3.67;3.38;;;;;;;15.70;93.25;94348.94;4969119;28;20286;-81
2023/08/02 06:18:16;;;;;;;4.13;3.05;;;;;;;15.67;93.34;94345.94;4967718;28;20177;-81
2023/08/02 06:20:42;;;;;;;5.68;3.33;;;;;;;15.61;93.67;94333.69;4964898;28;20661;-81
2023/08/02 06:23:07;;;;;;;5.10;3.03;;;;;;;15.82;92.52;94334.22;4957793;28;20185;-80
2023/08/02 06:25:32;;;;;;;3.88;3.10;;;;;;;15.69;93.40;94338.69;4959660;28;20231;-81
2023/08/02 06:27:58;;;;;;;3.95;3.20;;;;;;;15.84;92.41;94334.00;4943387;29;20338;-80
2023/08/02 06:30:23;;;;;;;3.85;3.08;;;;;;;15.82;93.27;94328.16;4959935;28;20235;-80
2023/08/02 06:32:48;;;;;;;3.83;2.72;;;;;;;15.91;92.49;94326.91;4984599;28;20192;-83
2023/08/02 06:35:14;;;;;;;4.65;3.25;;;;;;;16.14;91.82;94315.88;4964355;28;20207;-81
2023/08/02 06:37:39;;;;;;;6.18;3.10;;;;;;;16.31;91.42;94306.50;4966364;28;20254;-81
2023/08/02 06:40:05;;;;;;;3.70;2.92;;;;;;;16.39;90.77;94308.84;4954402;28;20211;-80
2023/08/02 06:42:30;;;;;;;3.97;2.85;;;;;;;16.28;90.40;94308.75;4948021;28;20545;-81
2023/08/02 06:44:57;;;;;;;3.85;3.45;;;;;;;16.25;91.28;94307.34;4955939;28;20629;-80
2023/08/02 06:47:22;;;;;;;3.63;2.85;;;;;;;16.25;91.55;94306.53;4956287;28;20193;-80
2023/08/02 06:49:47;;;;;;;3.92;2.90;;;;;;;16.07;91.67;94300.22;4979671;28;20176;-81
2023/08/02 06:52:13;;;;;;;4.88;2.78;;;;;;;16.18;91.48;94292.72;4945667;28;20200;-80
2023/08/02 06:54:38;;;;;;;3.95;2.90;;;;;;;16.22;91.19;94286.81;4964856;28;20223;-81
2023/08/02 06:57:03;;;;;;;3.17;2.78;;;;;;;15.97;92.74;94289.41;4958637;28;20195;-80
2023/08/02 06:59:29;;;;;;;4.53;3.08;;;;;;;16.14;92.30;94280.03;4963664;28;20674;-81
2023/08/02 07:01:54;;;;;;;3.15;2.65;;;;;;;16.23;92.32;94277.13;4956995;28;20184;-80
2023/08/02 07:04:19;;;;;;;5.22;3.00;;;;;;;16.38;92.71;94275.81;4957020;28;20192;-81
2023/08/02 07:06:45;;;;;;;3.88;3.13;;;;;;;16.42;92.33;94278.78;4956278;28;20204;-81
2023/08/02 07:09:10;;;;;;;3.70;3.13;;;;;;;16.56;92.12;94271.63;4958402;28;20222;-80
2023/08/02 07:11:35;;;;;;;3.85;3.10;;;;;;;16.92;89.94;94266.47;4969737;28;20573;-81
2023/08/02 07:14:01;;;;;;;3.10;2.67;;;;;;;17.15;89.42;94271.09;4983763;28;20199;-81
2023/08/02 07:16:26;;;;;;;4.75;3.15;;;;;;;16.99;88.11;94255.94;4948204;28;20681;-81
2023/08/02 07:18:52;;;;;;;3.58;2.60;;;;;;;17.19;88.29;94264.38;4972743;28;20183;-82
2023/08/02 07:21:17;;;;;;;2.95;2.65;;;;;;;17.26;87.39;94249.34;4966193;28;20188;-81
2023/08/02 07:23:42;;;;;;;2.97;2.67;;;;;;;17.16;87.49;94245.66;4957869;28;20268;-82
2023/08/02 07:26:09;;;;;;;3.95;2.83;;;;;;;17.25;88.90;94254.84;4959435;28;20205;-82
2023/08/02 07:28:34;;;;;;;4.15;2.40;;;;;;;17.50;87.79;94247.66;4945502;28;20209;-83
2023/08/02 07:31:07;;;;;;;3.28;2.67;;;;;;;17.55;87.85;94244.34;4965811;28;20200;-83
2023/08/02 07:33:33;;;;;;;2.90;2.45;;;;;;;17.39;88.12;94240.50;4968786;28;20179;-83
2023/08/02 07:35:58;;;;;;;3.47;2.97;;;;;;;17.48;88.33;94233.13;4969186;28;20222;-83
2023/08/02 07:38:23;;;;;;;2.55;2.35;;;;;;;17.54;87.99;94240.13;4959913;28;20207;-84
2023/08/02 07:40:49;;;;;;;4.85;2.72;;;;;;;17.37;89.04;94228.66;4954602;28;20196;-83
2023/08/02 07:43:14;;;;;;;3.38;2.97;;;;;;;17.40;89.85;94230.81;4965418;28;20194;-84
2023/08/02 07:45:39;;;;;;;2.15;1.95;;;;;;;16.99;90.69;94224.47;4966958;28;20212;-83
2023/08/02 07:48:05;;;;;;;3.20;2.33;;;;;;;17.25;90.69;94224.16;4959697;28;20223;-84
2023/08/02 07:50:31;;;;;;;2.28;1.90;;;;;;;17.23;91.27;94207.84;4985644;28;20192;-83
2023/08/02 07:52:56;;;;;;;2.55;2.10;;;;;;;17.26;91.53;94210.00;4948557;28;20185;-83
2023/08/02 07:55:21;;;;;;;1.90;1.80;;;;;;;17.27;92.11;94202.94;4958391;28;20636;-83
2023/08/02 07:57:47;;;;;;;1.98;1.88;;;;;;;17.43;92.02;94209.41;4978485;28;20766;-83
2023/08/02 08:00:13;;;;;;;1.67;1.58;;;;;;;17.00;93.02;94199.84;4995501;28;20180;-83
2023/08/02 08:02:38;;;;;;;1.58;1.48;;;;;;;17.22;93.79;94193.09;5002750;28;20197;-81
2023/08/02 08:05:04;;;;;;;1.58;1.48;;;;;;;17.30;92.37;94189.38;4985228;28;20191;-80
2023/08/02 08:07:29;;;;;;;1.63;1.40;;;;;;;17.43;93.58;94181.34;4982119;28;20207;-80
2023/08/02 08:09:55;;;;;;;2.22;1.48;;;;;;;17.40;93.56;94180.97;4969665;28;20184;-81
2023/08/02 08:12:20;;;;;;;1.40;1.30;;;;;;;17.40;92.89;94176.50;4965470;28;20193;-81
2023/08/02 08:14:45;;;;;;;1.63;1.52;;;;;;;17.64;92.34;94176.59;4947675;28;20195;-85
2023/08/02 08:17:11;;;;;;;2.45;1.58;;;;;;;17.52;92.70;94176.56;4956349;28;20192;-88
2023/08/02 08:19:37;;;;;;;1.85;1.63;;;;;;;17.56;93.39;94180.34;4957894;28;20185;-88
2023/08/02 08:22:02;;;;;;;3.08;1.63;;;;;;;17.63;92.65;94180.25;4960367;28;20211;-88
2023/08/02 08:24:28;;;;;;;1.95;1.30;;;;;;;17.65;93.77;94180.81;4948209;28;20447;-88
2023/08/02 08:26:55;;;;;;;1.50;1.40;;;;;;;17.74;93.05;94176.88;4961509;28;20243;-88
2023/08/02 08:29:20;;;;;;;1.50;1.40;;;;;;;17.68;92.96;94175.94;4949973;28;20211;-88
2023/08/02 08:31:45;;;;;;;1.60;1.20;;;;;;;17.86;92.05;94172.47;4956770;28;20172;-89
2023/08/02 08:34:11;;;;;;;1.45;1.35;;;;;;;17.77;93.14;94172.00;4959374;28;20183;-89
2023/08/02 08:36:36;;;;;;;1.77;1.65;;;;;;;18.02;92.95;94165.72;4945963;28;20212;-89
2023/08/02 08:39:55;;;;;;;1.63;1.48;;;;;;;17.53;95.57;94162.41;4957717;28;20199;-87
2023/08/02 08:42:20;;;;;;;2.42;1.45;;;;;;;17.34;96.23;94166.94;4955131;28;20191;-88
2023/08/02 08:44:46;;;;;;;1.30;1.20;;;;;;;17.21;95.93;94167.88;4955763;28;20256;-88
2023/08/02 08:47:12;;;;;;;1.63;1.52;;;;;;;17.35;95.95;94158.03;4942122;28;20176;-88
2023/08/02 08:49:38;;;;;;;1.25;1.15;;;;;;;17.25;95.92;94152.53;4957384;28;20208;-88
2023/08/02 08:52:05;;;;;;;2.95;1.52;;;;;;;17.32;95.57;94161.09;4948337;28;20296;-88
2023/08/02 08:54:31;;;;;;;1.98;1.27;;;;;;;17.21;97.08;94148.72;4965576;28;20211;-88
2023/08/02 08:56:57;;;;;;;1.55;1.40;;;;;;;16.88;99.01;94154.41;4975904;28;20219;-88
2023/08/02 08:59:23;;;;;;;1.60;1.50;;;;;;;16.78;100.00;94139.16;4979534;28;20183;-88
2023/08/02 09:01:48;;;;;;;3.90;1.50;;;;;;;16.82;100.00;94136.91;4954509;28;20188;-87
2023/08/02 09:04:14;;;;;;;1.83;1.63;;;;;;;17.06;99.92;94136.03;4946574;28;20191;-88
2023/08/02 09:06:39;;;;;;;1.50;1.40;;;;;;;17.27;99.57;94132.91;4944966;28;20291;-88
2023/08/02 09:09:04;;;;;;;2.38;1.75;;;;;;;17.47;97.95;94129.19;4945632;28;20200;-89
2023/08/02 09:11:30;;;;;;;1.67;1.58;;;;;;;17.39;98.26;94135.56;4963045;28;20192;-89
2023/08/02 09:14:10;;;;;;;1.80;1.63;;;;;;;17.48;98.02;94120.28;4960332;28;20198;-85
2023/08/02 09:16:39;;;;;;;2.65;1.65;;;;;;;17.23;98.12;94125.72;4971455;28;20204;-88
2023/08/02 09:19:20;;;;;;;1.98;1.85;;;;;;;17.26;98.51;94120.00;4959057;28;20255;-89
2023/08/02 09:21:45;;;;;;;2.53;1.58;;;;;;;17.41;97.35;94132.72;4948839;28;20184;-89
2023/08/02 09:24:11;;;;;;;2.00;1.80;;;;;;;17.40;96.97;94128.47;4950441;28;20738;-88
2023/08/02 09:26:36;;;;;;;2.45;1.70;;;;;;;17.55;96.16;94118.38;4935222;28;20240;-88
2023/08/02 09:29:03;;;;;;;1.70;1.60;;;;;;;17.57;96.35;94126.81;4960454;28;20262;-87
2023/08/02 09:31:30;;;;;;;2.10;1.90;;;;;;;17.57;96.36;94116.31;4959864;28;20193;-89
2023/08/02 09:33:56;;;;;;;1.90;1.75;;;;;;;17.47;96.54;94116.06;4948737;28;20718;-88
2023/08/02 09:36:32;;;;;;;1.30;1.20;;;;;;;17.43;96.07;94114.94;4950120;28;20208;-89
2023/08/02 09:39:03;;;;;;;2.05;1.30;;;;;;;17.44;96.36;94106.03;4958331;28;20247;-88
2023/08/02 09:41:29;;;;;;;1.60;1.23;;;;;;;17.56;95.42;94110.25;4958017;28;20180;-88
2023/08/02 09:43:55;;;;;;;1.48;1.38;;;;;;;17.46;96.34;94109.22;4965345;28;20187;-89
2023/08/02 09:46:34;;;;;;;1.80;1.55;;;;;;;17.76;95.25;94107.38;4961045;28;20212;-88
2023/08/02 09:49:00;;;;;;;3.95;2.70;;;;;;;17.72;96.12;94103.59;4964038;28;21253;-88
2023/08/02 09:51:40;;;;;;;1.48;1.25;;;;;;;17.68;95.42;94102.44;4953095;28;20184;-89
2023/08/02 09:54:06;;;;;;;2.38;1.60;;;;;;;17.99;94.73;94096.06;4950303;28;20184;-88
2023/08/02 09:56:34;;;;;;;1.30;1.20;;;;;;;18.29;93.75;94098.59;4962888;28;20204;-88
2023/08/02 09:59:01;;;;;;;1.20;1.10;;;;;;;18.11;93.69;94096.91;4945884;28;20352;-88
2023/08/02 10:01:27;;;;;;;1.10;1.00;;;;;;;18.08;93.46;94096.53;4960905;28;20212;-87
2023/08/02 10:03:56;;;;;;;1.35;1.25;;;;;;;17.98;94.21;94075.31;4953547;28;20661;-87
2023/08/02 10:06:49;;;;;;;2.10;1.10;;;;;;;18.04;95.97;94082.28;4956165;28;20204;-88
2023/08/02 10:09:18;;;;;;;1.65;1.45;;;;;;;17.96;95.67;94072.91;4943937;28;20212;-80
2023/08/02 10:11:50;;;;;;;1.48;1.20;;;;;;;17.75;96.63;94071.63;4963048;28;20177;-80
2023/08/02 10:14:16;;;;;;;1.10;1.08;;;;;;;17.95;95.69;94081.81;4975122;28;20191;-90
2023/08/02 10:16:42;;;;;;;1.58;1.48;;;;;;;18.22;96.01;94076.09;4973881;28;20260;-92
2023/08/02 10:19:08;;;;;;;0.88;0.88;;;;;;;17.88;95.88;94065.38;4984021;28;20252;-92
2023/08/02 10:21:34;;;;;;;1.45;1.30;;;;;;;18.03;97.27;94075.44;4969970;28;20193;-91
2023/08/02 10:23:59;;;;;;;1.48;1.15;;;;;;;17.94;96.20;94050.53;4982524;28;20219;-90
2023/08/02 10:26:25;;;;;;;1.30;1.20;;;;;;;18.04;97.51;94042.88;4971064;28;20216;-89
2023/08/02 10:28:51;;;;;;;1.60;1.50;;;;;;;17.76;98.36;94036.50;4946456;29;20209;-88
2023/08/02 10:31:17;;;;;;;3.25;1.70;;;;;;;17.90;98.74;94046.75;4956444;28;20602;-88
2023/08/02 10:33:42;;;;;;;2.22;1.90;;;;;;;17.80;99.29;94048.13;4960915;28;20184;-88
2023/08/02 10:36:08;;;;;;;2.67;1.90;;;;;;;17.99;98.84;94050.63;4962546;28;20802;-81
2023/08/02 10:38:39;;;;;;;2.55;1.70;;;;;;;17.82;97.94;94045.25;4980249;28;20181;-81
2023/08/02 10:41:08;;;;;;;3.00;2.10;;;;;;;17.95;97.87;94036.38;4981072;28;20199;-81
2023/08/02 10:43:34;;;;;;;3.22;2.50;;;;;;;18.11;97.91;94039.09;4959971;28;20225;-82
2023/08/02 10:46:16;;;;;;;3.00;2.70;;;;;;;18.41;96.36;94040.75;4933916;28;20352;-81
2023/08/02 10:48:41;;;;;;;4.75;3.08;;;;;;;18.61;94.75;94030.63;4948084;28;20274;-81
2023/08/02 10:51:26;;;;;;;3.00;2.45;;;;;;;18.49;96.73;94036.97;4964507;28;20677;-81
2023/08/02 10:54:18;;;;;;;3.30;2.60;;;;;;;18.43;96.51;94017.66;4981668;28;20191;-81
2023/08/02 10:56:53;;;;;;;4.18;3.08;;;;;;;18.35;94.75;94025.91;4966486;28;20204;-81
2023/08/02 10:59:24;;;;;;;3.40;3.10;;;;;;;18.61;95.99;94016.69;4967936;28;20186;-82
2023/08/02 11:01:53;;;;;;;4.57;3.20;;;;;;;19.09;94.58;94021.56;4958089;28;20271;-82
2023/08/02 11:04:19;;;;;;;4.25;3.80;;;;;;;19.32;93.28;94020.59;4960787;28;20539;-83
2023/08/02 11:06:44;;;;;;;4.53;3.30;;;;;;;19.30;92.11;94021.91;4960898;28;20204;-82
2023/08/02 11:09:09;;;;;;;3.78;3.47;;;;;;;19.69;90.12;94010.41;4957043;28;20235;-86
2023/08/02 11:11:36;;;;;;;5.22;3.70;;;;;;;19.53;89.22;94009.38;4954104;28;20180;-86
2023/08/02 11:14:01;;;;;;;6.78;4.00;;;;;;;20.08;87.74;94002.56;4954263;28;20263;-86
2023/08/02 11:16:27;;;;;;;5.88;3.95;;;;;;;20.25;87.19;94005.13;4964170;28;20576;-84
2023/08/02 11:18:53;;;;;;;4.47;4.07;;;;;;;20.96;86.71;94021.00;4955901;28;20208;-85
2023/08/02 11:22:16;;;;;;;4.65;3.97;;;;;;;20.79;83.53;94011.34;4940911;28;20192;-85
2023/08/02 11:25:00;;;;;;;4.25;3.63;;;;;;;20.91;81.41;94011.97;4888800;29;20198;-84
2023/08/02 11:27:28;;;;;;;5.03;3.75;;;;;;;20.98;82.52;94024.97;4885032;29;20272;-84
2023/08/02 11:30:04;;;;;;;5.45;3.67;;;;;;;20.83;80.80;94007.16;4886575;29;20191;-80
2023/08/02 11:32:31;;;;;;;4.25;3.85;;;;;;;21.06;81.12;94010.53;4905263;29;20726;-86